Time;durP1;ratioP1;P1;durP2;ratioP2;P2;SDS_P1;SDS_P2;PMS_P1;PMS_P2;Temp;Humidity;BMP_temperature;BMP_pressure;BME280_temperature;BME280_humidity;BME280_pressure;Samples;Min_cycle;Max_cycle;Signal;HPM_P1;HPM_P2
2022/10/08 00:01:03;;;;;;;6.65;3.72;;;15.80;97.10;;;;;;932433;149;27296;-77
2022/10/08 00:03:30;;;;;;;6.33;3.85;;;15.80;97.00;;;;;;929418;149;27264;-78
2022/10/08 00:06:06;;;;;;;5.97;4.10;;;15.80;97.00;;;;;;930631;149;27427;-77
2022/10/08 00:08:32;;;;;;;7.33;5.28;;;15.90;97.00;;;;;;931471;149;27388;-77
2022/10/08 00:10:59;;;;;;;5.50;4.00;;;15.90;97.00;;;;;;930080;149;27404;-77
2022/10/08 00:13:25;;;;;;;6.40;3.95;;;15.90;97.00;;;;;;932477;149;27328;-78
2022/10/08 00:15:52;;;;;;;4.22;3.60;;;15.90;97.00;;;;;;932138;149;27432;-77
2022/10/08 00:18:19;;;;;;;6.08;4.03;;;15.90;97.00;;;;;;930591;149;27436;-78
2022/10/08 00:20:45;;;;;;;3.92;3.62;;;16.00;97.00;;;;;;931782;149;27472;-78
2022/10/08 00:23:12;;;;;;;5.95;4.30;;;16.00;97.10;;;;;;930777;149;27721;-77
2022/10/08 00:25:41;;;;;;;5.25;3.87;;;16.00;97.00;;;;;;932332;149;27375;-77
2022/10/08 00:28:08;;;;;;;4.08;3.35;;;16.00;97.00;;;;;;931196;149;27313;-77
2022/10/08 00:30:35;;;;;;;4.30;3.75;;;16.00;97.00;;;;;;933409;149;27319;-77
2022/10/08 00:33:01;;;;;;;5.67;3.95;;;16.00;96.90;;;;;;931876;149;27824;-79
2022/10/08 00:35:28;;;;;;;5.45;4.28;;;16.00;96.80;;;;;;931576;149;27364;-79
2022/10/08 00:37:55;;;;;;;4.40;4.00;;;16.00;96.80;;;;;;933979;147;27334;-78
2022/10/08 00:40:21;;;;;;;4.45;3.80;;;16.00;96.90;;;;;;933782;149;27269;-78
2022/10/08 00:42:47;;;;;;;9.43;3.70;;;16.10;96.90;;;;;;933628;149;27756;-79
2022/10/08 00:45:14;;;;;;;3.62;3.02;;;16.10;97.00;;;;;;933380;149;27490;-78
2022/10/08 00:47:44;;;;;;;4.67;4.03;;;16.10;96.90;;;;;;934327;149;27393;-78
2022/10/08 00:50:19;;;;;;;4.60;4.03;;;16.10;97.10;;;;;;932490;149;27332;-79
2022/10/08 00:52:52;;;;;;;6.33;4.37;;;16.10;97.20;;;;;;934520;149;27340;-78
2022/10/08 00:55:18;;;;;;;4.08;3.70;;;16.10;97.00;;;;;;930896;149;27848;-79
2022/10/08 00:57:45;;;;;;;6.62;4.45;;;16.10;97.00;;;;;;930816;149;27367;-78
2022/10/08 01:00:17;;;;;;;7.28;3.65;;;16.10;97.20;;;;;;931389;149;27467;-78
2022/10/08 01:02:43;;;;;;;4.95;3.80;;;16.10;97.20;;;;;;931769;149;27343;-79
2022/10/08 01:05:10;;;;;;;5.65;4.10;;;16.10;97.20;;;;;;930450;147;27337;-78
2022/10/08 01:07:37;;;;;;;4.50;4.10;;;16.10;97.20;;;;;;931197;149;27341;-79
2022/10/08 01:10:09;;;;;;;6.78;4.50;;;16.10;97.30;;;;;;929327;148;27337;-78
2022/10/08 01:12:49;;;;;;;4.40;4.00;;;16.10;97.40;;;;;;933126;149;27454;-77
2022/10/08 01:15:38;;;;;;;5.33;3.93;;;16.20;97.40;;;;;;931552;149;27416;-78
2022/10/08 01:18:17;;;;;;;4.33;3.92;;;16.20;97.40;;;;;;935360;149;27303;-78
2022/10/08 01:20:50;;;;;;;4.50;4.10;;;16.20;97.20;;;;;;931617;149;27297;-77
2022/10/08 01:23:35;;;;;;;4.70;3.92;;;16.20;97.20;;;;;;931277;149;28486;-77
2022/10/08 01:26:23;;;;;;;7.72;4.08;;;16.20;97.40;;;;;;931498;149;27384;-78
2022/10/08 01:28:55;;;;;;;3.92;3.60;;;16.30;97.30;;;;;;933258;149;27746;-78
2022/10/08 01:31:22;;;;;;;8.70;4.10;;;16.20;97.20;;;;;;932937;149;27431;-79
2022/10/08 01:33:51;;;;;;;5.00;4.20;;;16.30;97.40;;;;;;933748;149;27338;-79
2022/10/08 01:36:18;;;;;;;6.00;3.90;;;16.30;97.40;;;;;;933363;149;27403;-79
2022/10/08 01:38:44;;;;;;;5.12;3.83;;;16.30;97.50;;;;;;933334;148;27346;-79
2022/10/08 01:41:11;;;;;;;4.55;4.15;;;16.30;97.50;;;;;;930855;149;27501;-79
2022/10/08 01:43:37;;;;;;;4.22;3.87;;;16.30;97.50;;;;;;934068;149;27417;-79
2022/10/08 01:46:15;;;;;;;5.42;3.98;;;16.40;97.50;;;;;;932096;149;27402;-79
2022/10/08 01:48:42;;;;;;;4.87;3.62;;;16.40;97.40;;;;;;935311;149;27330;-79
2022/10/08 01:51:09;;;;;;;4.85;3.85;;;16.40;97.40;;;;;;930492;149;27372;-78
2022/10/08 01:53:38;;;;;;;5.08;3.45;;;16.40;97.30;;;;;;933525;149;27865;-78
2022/10/08 01:56:04;;;;;;;4.03;3.47;;;16.40;97.30;;;;;;933604;149;27348;-77
2022/10/08 01:58:39;;;;;;;5.85;4.05;;;16.50;97.30;;;;;;932030;149;27268;-78
2022/10/08 02:01:12;;;;;;;4.40;4.00;;;16.50;97.30;;;;;;933676;149;27374;-78
2022/10/08 02:04:31;;;;;;;5.83;3.98;;;16.50;97.20;;;;;;929559;149;27490;-79
2022/10/08 02:06:05;;;;;;;5.13;4.00;;;16.50;97.10;;;;;;936297;148;27346;-78
2022/10/08 02:08:32;;;;;;;4.75;4.35;;;16.50;97.10;;;;;;938047;148;27303;-78
2022/10/08 02:10:58;;;;;;;4.40;3.67;;;16.50;97.10;;;;;;937714;148;27431;-78
2022/10/08 02:13:25;;;;;;;4.15;3.75;;;16.50;97.50;;;;;;935803;148;27353;-78
2022/10/08 02:15:57;;;;;;;4.40;4.00;;;16.50;97.10;;;;;;935940;148;27371;-78
2022/10/08 02:18:29;;;;;;;6.30;3.65;;;16.50;97.20;;;;;;937150;148;27372;-78
2022/10/08 02:20:59;;;;;;;4.60;3.70;;;16.50;97.20;;;;;;937283;148;27428;-79
2022/10/08 02:23:28;;;;;;;4.25;3.85;;;16.50;97.20;;;;;;938746;148;27356;-78
2022/10/08 02:25:58;;;;;;;4.30;3.90;;;16.50;97.30;;;;;;935886;148;27335;-78
2022/10/08 02:28:36;;;;;;;6.58;4.40;;;16.50;97.30;;;;;;935502;148;27424;-78
2022/10/08 02:31:06;;;;;;;5.20;4.33;;;16.50;97.30;;;;;;935250;148;27369;-79
2022/10/08 02:33:50;;;;;;;5.28;3.85;;;16.50;97.30;;;;;;936024;148;27451;-78
2022/10/08 02:36:17;;;;;;;6.53;4.05;;;16.50;97.40;;;;;;935172;148;27312;-78
2022/10/08 02:38:52;;;;;;;5.10;3.67;;;16.50;97.40;;;;;;937624;148;27330;-78
2022/10/08 02:41:21;;;;;;;4.35;3.67;;;16.50;97.50;;;;;;935577;148;27459;-78
2022/10/08 02:43:48;;;;;;;5.90;3.77;;;16.50;97.50;;;;;;936974;148;27396;-78
2022/10/08 02:46:17;;;;;;;6.00;4.10;;;16.50;97.40;;;;;;936727;148;27472;-78
2022/10/08 02:48:47;;;;;;;4.28;3.85;;;16.50;97.40;;;;;;934844;148;27700;-78
2022/10/08 02:51:14;;;;;;;4.08;3.45;;;16.50;97.20;;;;;;930802;148;27444;-78
2022/10/08 02:53:40;;;;;;;7.10;4.08;;;16.50;97.10;;;;;;935185;148;27411;-78
2022/10/08 02:56:25;;;;;;;6.10;4.60;;;16.40;96.90;;;;;;937435;148;27383;-80
2022/10/08 02:58:51;;;;;;;5.75;3.90;;;16.40;96.80;;;;;;935383;148;27364;-80
2022/10/08 03:01:18;;;;;;;5.35;4.80;;;16.40;96.60;;;;;;936809;148;27367;-79
2022/10/08 03:03:47;;;;;;;5.13;4.17;;;16.30;96.70;;;;;;937849;148;27359;-79
2022/10/08 03:06:14;;;;;;;4.85;3.58;;;16.30;96.90;;;;;;938539;148;27383;-80
2022/10/08 03:08:41;;;;;;;6.00;4.20;;;16.20;97.10;;;;;;935983;148;27472;-80
2022/10/08 03:11:07;;;;;;;3.98;3.58;;;16.20;97.00;;;;;;936616;148;27383;-80
2022/10/08 03:13:37;;;;;;;5.08;3.77;;;16.10;97.20;;;;;;938147;148;27355;-80
2022/10/08 03:16:03;;;;;;;8.95;3.35;;;16.10;97.30;;;;;;937198;148;27319;-80
2022/10/08 03:18:30;;;;;;;4.72;3.55;;;16.10;97.40;;;;;;937954;148;27384;-80
2022/10/08 03:20:57;;;;;;;3.62;3.33;;;16.00;97.40;;;;;;936752;148;27375;-80
2022/10/08 03:23:23;;;;;;;3.77;3.37;;;16.00;97.30;;;;;;935390;148;27872;-80
2022/10/08 03:25:49;;;;;;;5.22;3.47;;;16.00;97.10;;;;;;935297;148;27341;-80
2022/10/08 03:28:16;;;;;;;6.22;3.80;;;15.90;97.00;;;;;;936754;148;27305;-80
2022/10/08 03:30:43;;;;;;;3.77;3.20;;;15.90;97.00;;;;;;937498;148;27448;-80
2022/10/08 03:33:09;;;;;;;5.60;3.27;;;15.80;97.00;;;;;;935653;148;27323;-80
2022/10/08 03:35:36;;;;;;;4.17;3.05;;;15.70;97.20;;;;;;938093;148;27324;-80
2022/10/08 03:38:02;;;;;;;5.03;3.60;;;15.70;97.50;;;;;;933994;148;27297;-80
2022/10/08 03:40:29;;;;;;;7.15;3.37;;;15.60;97.60;;;;;;935250;148;27425;-80
2022/10/08 03:42:56;;;;;;;4.42;2.83;;;15.60;97.60;;;;;;934979;148;27370;-80
2022/10/08 03:45:22;;;;;;;3.67;3.13;;;15.50;97.50;;;;;;937098;148;27850;-80
2022/10/08 03:47:52;;;;;;;4.40;3.73;;;15.50;97.50;;;;;;937434;148;27440;-80
2022/10/08 03:50:18;;;;;;;4.77;3.27;;;15.40;97.40;;;;;;936807;148;27395;-80
2022/10/08 03:52:45;;;;;;;5.30;3.20;;;15.30;97.40;;;;;;935192;148;27460;-80
2022/10/08 03:55:11;;;;;;;4.67;3.72;;;15.30;97.40;;;;;;935614;148;27461;-80
2022/10/08 03:57:38;;;;;;;4.53;3.73;;;15.20;97.50;;;;;;934457;148;27326;-80
2022/10/08 04:00:04;;;;;;;5.57;3.53;;;15.10;97.70;;;;;;933471;148;27434;-80
2022/10/08 04:02:33;;;;;;;3.23;2.93;;;15.00;97.80;;;;;;935648;148;27487;-80
2022/10/08 04:05:00;;;;;;;3.85;3.22;;;15.00;97.80;;;;;;935216;148;27421;-80
2022/10/08 04:07:27;;;;;;;5.80;3.23;;;14.90;97.90;;;;;;937225;148;27300;-80
2022/10/08 04:09:53;;;;;;;4.50;3.30;;;14.80;97.90;;;;;;935747;148;27718;-80
2022/10/08 04:12:20;;;;;;;5.20;3.47;;;14.70;97.90;;;;;;936701;148;27356;-80
2022/10/08 04:14:46;;;;;;;3.93;2.73;;;14.70;98.10;;;;;;937543;148;27280;-80
2022/10/08 04:17:13;;;;;;;6.93;3.30;;;14.60;98.20;;;;;;934835;148;27421;-80
2022/10/08 04:19:40;;;;;;;3.60;3.17;;;14.60;98.40;;;;;;935458;148;27421;-80
2022/10/08 04:22:06;;;;;;;5.13;3.57;;;14.50;98.40;;;;;;937286;148;27341;-80
2022/10/08 04:24:33;;;;;;;3.83;3.47;;;14.40;98.50;;;;;;936456;148;27419;-80
2022/10/08 04:26:59;;;;;;;3.23;2.93;;;14.40;98.60;;;;;;936495;148;27314;-80
2022/10/08 04:29:26;;;;;;;3.63;3.13;;;14.30;98.70;;;;;;935146;148;27425;-80
2022/10/08 04:31:52;;;;;;;4.67;3.30;;;14.30;98.80;;;;;;935243;148;27311;-80
2022/10/08 04:34:19;;;;;;;5.53;2.93;;;14.20;98.70;;;;;;936014;148;27496;-80
2022/10/08 04:36:46;;;;;;;5.27;3.13;;;14.10;98.80;;;;;;938894;148;27354;-80
2022/10/08 04:39:12;;;;;;;4.77;2.80;;;14.10;98.80;;;;;;936726;148;27347;-80
2022/10/08 04:41:39;;;;;;;4.37;3.17;;;14.00;98.80;;;;;;935645;148;27335;-80
2022/10/08 04:44:05;;;;;;;4.30;2.90;;;13.90;98.80;;;;;;936175;148;27470;-80
2022/10/08 04:46:32;;;;;;;5.40;3.20;;;13.90;98.90;;;;;;935520;148;27319;-80
2022/10/08 04:48:59;;;;;;;5.03;2.90;;;13.80;99.00;;;;;;936484;148;27391;-80
2022/10/08 04:51:25;;;;;;;4.57;3.40;;;13.70;99.00;;;;;;936619;148;27387;-80
2022/10/08 04:53:52;;;;;;;2.83;2.63;;;13.70;99.10;;;;;;936649;148;27343;-80
2022/10/08 04:56:18;;;;;;;4.43;3.27;;;13.60;99.20;;;;;;934687;148;27331;-80
2022/10/08 04:58:45;;;;;;;5.00;2.63;;;13.60;99.40;;;;;;935636;148;27359;-80
2022/10/08 05:01:12;;;;;;;5.53;2.97;;;13.50;99.50;;;;;;935024;148;27415;-80
2022/10/08 05:03:38;;;;;;;4.80;3.23;;;13.40;99.60;;;;;;935592;148;27402;-80
2022/10/08 05:06:05;;;;;;;9.07;3.30;;;13.40;99.70;;;;;;933598;148;27467;-80
2022/10/08 05:08:31;;;;;;;4.97;2.70;;;13.30;99.80;;;;;;927590;149;27528;-80
2022/10/08 05:10:58;;;;;;;6.33;2.83;;;13.30;99.80;;;;;;931311;149;27268;-80
2022/10/08 05:13:24;;;;;;;3.27;3.07;;;13.20;99.80;;;;;;934247;149;27436;-80
2022/10/08 05:15:51;;;;;;;3.63;2.83;;;13.20;99.90;;;;;;931560;149;27372;-80
2022/10/08 05:18:18;;;;;;;4.63;2.90;;;13.10;99.90;;;;;;931129;149;27491;-80
2022/10/08 05:20:44;;;;;;;6.60;3.37;;;13.00;99.90;;;;;;932320;149;27307;-80
2022/10/08 05:23:11;;;;;;;3.47;2.90;;;13.00;99.90;;;;;;929245;149;27323;-80
2022/10/08 05:25:37;;;;;;;5.57;2.90;;;13.00;99.90;;;;;;932075;149;27415;-80
2022/10/08 05:28:04;;;;;;;5.77;2.80;;;12.90;99.90;;;;;;932461;149;27375;-80
2022/10/08 05:30:31;;;;;;;5.03;3.03;;;12.80;99.90;;;;;;928930;149;27372;-80
2022/10/08 05:32:57;;;;;;;5.43;3.30;;;12.80;99.90;;;;;;930898;149;27307;-80
2022/10/08 05:35:24;;;;;;;3.53;2.73;;;12.70;99.90;;;;;;932545;149;27352;-80
2022/10/08 05:37:50;;;;;;;5.57;2.80;;;12.70;99.90;;;;;;932344;149;27295;-80
2022/10/08 05:40:17;;;;;;;4.23;2.57;;;12.70;99.90;;;;;;932104;149;27394;-80
2022/10/08 05:42:44;;;;;;;7.37;3.03;;;12.60;99.90;;;;;;930687;149;27352;-80
2022/10/08 05:45:11;;;;;;;7.57;2.80;;;12.60;99.90;;;;;;930767;149;27335;-80
2022/10/08 05:47:37;;;;;;;2.73;2.53;;;12.50;99.90;;;;;;932839;149;27408;-80
2022/10/08 05:50:03;;;;;;;3.77;2.73;;;12.50;99.90;;;;;;930504;149;27306;-80
2022/10/08 05:52:30;;;;;;;7.37;3.53;;;12.50;99.90;;;;;;929591;149;27363;-80
2022/10/08 05:54:56;;;;;;;5.27;2.90;;;12.40;99.90;;;;;;930180;149;27445;-80
2022/10/08 05:57:23;;;;;;;4.27;2.70;;;12.40;99.90;;;;;;931465;149;27471;-79
2022/10/08 05:59:50;;;;;;;4.50;2.70;;;12.40;99.90;;;;;;929326;149;27369;-80
2022/10/08 06:02:16;;;;;;;3.23;2.57;;;12.40;99.90;;;;;;929967;149;27438;-80
2022/10/08 06:04:43;;;;;;;5.97;3.00;;;12.40;99.90;;;;;;932597;149;27442;-80
2022/10/08 06:07:09;;;;;;;3.80;2.63;;;12.50;99.90;;;;;;932917;148;27392;-80
2022/10/08 06:09:36;;;;;;;4.30;2.70;;;12.50;99.90;;;;;;935314;148;27372;-80
2022/10/08 06:12:03;;;;;;;3.30;2.53;;;12.50;99.90;;;;;;936270;148;27387;-80
2022/10/08 06:14:29;;;;;;;3.53;2.50;;;12.60;99.90;;;;;;936559;148;27295;-80
2022/10/08 06:16:56;;;;;;;3.17;2.80;;;12.60;99.90;;;;;;938177;148;27322;-80
2022/10/08 06:19:22;;;;;;;7.07;2.90;;;12.80;99.90;;;;;;935222;148;27378;-80
2022/10/08 06:21:49;;;;;;;4.07;3.03;;;12.90;99.90;;;;;;935938;148;27378;-80
2022/10/08 06:24:15;;;;;;;6.80;3.00;;;13.00;99.90;;;;;;936632;148;27303;-79
2022/10/08 06:26:42;;;;;;;5.27;2.60;;;13.20;99.90;;;;;;936005;148;27426;-80
2022/10/08 06:29:09;;;;;;;6.37;2.73;;;13.30;99.90;;;;;;934321;148;27709;-79
2022/10/08 06:31:35;;;;;;;3.17;2.50;;;13.40;99.90;;;;;;933279;148;27410;-80
2022/10/08 06:34:03;;;;;;;3.37;2.40;;;13.50;99.90;;;;;;937063;148;27333;-80
2022/10/08 06:36:28;;;;;;;4.57;2.37;;;13.60;99.90;;;;;;936174;147;27390;-80
2022/10/08 06:38:55;;;;;;;3.97;2.40;;;13.70;99.90;;;;;;937730;148;27327;-80
2022/10/08 06:41:22;;;;;;;3.47;2.37;;;13.80;99.90;;;;;;936410;148;27330;-80
2022/10/08 06:43:48;;;;;;;4.80;2.70;;;13.90;99.90;;;;;;937204;148;27371;-80
2022/10/08 06:46:15;;;;;;;3.00;2.03;;;14.10;99.90;;;;;;935380;148;27349;-80
2022/10/08 06:48:41;;;;;;;4.00;2.80;;;14.20;99.90;;;;;;937022;148;27355;-80
2022/10/08 06:51:14;;;;;;;5.30;2.13;;;14.30;99.90;;;;;;936617;148;27330;-80
2022/10/08 06:53:40;;;;;;;4.90;2.03;;;14.40;99.90;;;;;;937339;148;27459;-80
2022/10/08 06:56:07;;;;;;;4.58;2.12;;;14.60;99.90;;;;;;936526;148;27267;-80
2022/10/08 06:58:36;;;;;;;3.45;2.20;;;14.90;99.90;;;;;;933866;148;27527;-80
2022/10/08 07:01:05;;;;;;;4.83;2.17;;;15.20;99.90;;;;;;936746;148;27436;-80
2022/10/08 07:03:32;;;;;;;2.10;1.87;;;15.60;99.90;;;;;;938588;148;27313;-80
2022/10/08 07:06:01;;;;;;;2.05;1.85;;;16.10;99.90;;;;;;936209;148;27364;-80
2022/10/08 07:08:28;;;;;;;4.28;2.00;;;16.60;99.90;;;;;;932102;148;27422;-80
2022/10/08 07:10:54;;;;;;;2.30;1.90;;;17.20;99.90;;;;;;931010;149;27681;-80
2022/10/08 07:13:21;;;;;;;4.83;1.72;;;17.70;99.90;;;;;;931525;149;27263;-80
2022/10/08 07:15:48;;;;;;;2.58;1.70;;;18.30;99.90;;;;;;932698;149;27336;-80
2022/10/08 07:18:15;;;;;;;2.25;1.80;;;18.90;99.10;;;;;;932967;149;27999;-80
2022/10/08 07:20:41;;;;;;;2.33;1.67;;;19.40;96.80;;;;;;931319;149;27357;-80
2022/10/08 07:23:07;;;;;;;3.22;1.77;;;19.80;94.50;;;;;;930518;149;27378;-80
2022/10/08 07:25:34;;;;;;;2.22;1.65;;;20.20;92.60;;;;;;932064;149;27362;-80
2022/10/08 07:28:01;;;;;;;4.37;2.02;;;20.60;91.90;;;;;;931140;149;27384;-80
2022/10/08 07:30:27;;;;;;;2.40;2.05;;;21.00;91.40;;;;;;931607;149;27273;-80
2022/10/08 07:32:54;;;;;;;3.10;1.82;;;21.40;90.50;;;;;;929607;149;27335;-81
2022/10/08 07:35:20;;;;;;;4.40;1.87;;;21.70;87.10;;;;;;929257;149;27384;-80
2022/10/08 07:37:47;;;;;;;3.33;1.82;;;22.00;83.20;;;;;;930484;149;28891;-80
2022/10/08 07:40:14;;;;;;;3.62;1.60;;;22.10;80.40;;;;;;930085;149;27286;-80
2022/10/08 07:42:40;;;;;;;2.35;1.80;;;22.10;78.40;;;;;;930619;149;27321;-80
2022/10/08 07:45:07;;;;;;;3.62;1.80;;;22.10;76.50;;;;;;931239;149;27872;-80
2022/10/08 07:47:33;;;;;;;2.30;1.90;;;22.10;75.50;;;;;;930435;149;27355;-80
2022/10/08 07:50:00;;;;;;;4.33;1.80;;;22.00;75.00;;;;;;931009;149;27469;-80
2022/10/08 07:52:27;;;;;;;3.35;1.80;;;21.90;74.40;;;;;;930860;149;27316;-80
2022/10/08 07:54:53;;;;;;;4.58;2.12;;;21.80;74.10;;;;;;929340;149;27429;-80
2022/10/08 07:57:20;;;;;;;1.80;1.60;;;21.70;74.00;;;;;;930273;149;27411;-80
2022/10/08 07:59:46;;;;;;;1.87;1.70;;;21.70;74.60;;;;;;930423;149;27345;-80
2022/10/08 08:02:13;;;;;;;3.35;1.95;;;21.70;74.80;;;;;;931163;149;27360;-80
2022/10/08 08:04:40;;;;;;;4.00;1.80;;;21.90;75.90;;;;;;931414;149;27415;-80
2022/10/08 08:07:07;;;;;;;3.67;1.60;;;22.30;77.60;;;;;;929961;149;27339;-80
2022/10/08 08:09:33;;;;;;;2.62;1.57;;;22.80;79.30;;;;;;931157;149;27456;-80
2022/10/08 08:11:59;;;;;;;2.92;1.70;;;23.40;79.60;;;;;;931815;149;27299;-80
2022/10/08 08:14:26;;;;;;;3.83;1.87;;;24.00;77.90;;;;;;930061;149;27459;-80
2022/10/08 08:16:53;;;;;;;3.22;1.75;;;24.60;75.30;;;;;;931801;149;27448;-80
2022/10/08 08:19:19;;;;;;;2.70;1.80;;;25.10;72.70;;;;;;930007;149;27363;-80
2022/10/08 08:21:46;;;;;;;2.77;1.98;;;25.50;70.50;;;;;;928908;149;27794;-80
2022/10/08 08:24:12;;;;;;;2.70;1.70;;;25.80;68.50;;;;;;931390;149;27372;-80
2022/10/08 08:26:39;;;;;;;6.33;2.05;;;26.00;66.50;;;;;;930845;149;27372;-80
2022/10/08 08:29:05;;;;;;;3.37;1.87;;;26.10;64.60;;;;;;930376;149;27341;-80
2022/10/08 08:31:35;;;;;;;3.62;1.85;;;26.20;64.80;;;;;;930287;149;27353;-80
2022/10/08 08:34:02;;;;;;;4.65;1.90;;;26.20;64.40;;;;;;929531;149;27446;-80
2022/10/08 08:36:31;;;;;;;3.35;1.82;;;26.20;63.90;;;;;;929450;149;27312;-80
2022/10/08 08:38:58;;;;;;;3.20;1.60;;;26.20;62.80;;;;;;931186;149;27302;-80
2022/10/08 08:41:36;;;;;;;2.75;1.72;;;26.20;62.00;;;;;;930065;149;28104;-80
2022/10/08 08:44:03;;;;;;;2.98;1.55;;;26.20;61.60;;;;;;930076;149;27399;-80
2022/10/08 08:46:29;;;;;;;2.45;1.60;;;26.30;62.10;;;;;;931272;149;28076;-80
2022/10/08 08:48:56;;;;;;;3.95;1.50;;;26.40;62.50;;;;;;931409;149;27425;-82
2022/10/08 08:51:22;;;;;;;2.62;1.40;;;26.70;62.60;;;;;;930947;149;27454;-81
2022/10/08 08:53:49;;;;;;;2.60;1.20;;;27.00;62.10;;;;;;932315;149;27376;-81
2022/10/08 08:56:16;;;;;;;2.77;1.37;;;27.40;61.80;;;;;;929448;149;27422;-80
2022/10/08 08:58:42;;;;;;;1.80;1.15;;;27.80;61.40;;;;;;930838;149;27833;-81
2022/10/08 09:01:09;;;;;;;2.55;1.40;;;28.20;60.50;;;;;;924205;149;27294;-81
2022/10/08 09:03:50;;;;;;;2.27;1.50;;;28.60;60.00;;;;;;930634;149;27429;-80
2022/10/08 09:06:17;;;;;;;3.17;1.70;;;29.00;59.30;;;;;;932053;149;27350;-80
2022/10/08 09:08:43;;;;;;;2.02;1.45;;;29.40;59.00;;;;;;930580;148;27395;-81
2022/10/08 09:11:10;;;;;;;3.60;1.90;;;29.80;58.30;;;;;;928608;149;27432;-80
2022/10/08 09:13:39;;;;;;;2.95;1.32;;;30.10;57.40;;;;;;930340;149;26235;-81
2022/10/08 09:16:06;;;;;;;2.58;1.70;;;30.40;57.20;;;;;;931062;149;27372;-80
2022/10/08 09:18:32;;;;;;;3.17;1.22;;;30.70;56.30;;;;;;928957;149;27335;-80
2022/10/08 09:20:59;;;;;;;6.03;1.77;;;30.80;55.10;;;;;;931953;149;27345;-81
2022/10/08 09:23:26;;;;;;;3.83;1.65;;;30.80;54.30;;;;;;931562;149;27317;-80
2022/10/08 09:25:58;;;;;;;3.58;1.50;;;30.70;53.40;;;;;;931528;149;28073;-80
2022/10/08 09:28:43;;;;;;;3.62;1.92;;;30.40;52.60;;;;;;930567;149;27410;-81
2022/10/08 09:31:24;;;;;;;2.67;1.35;;;30.10;52.30;;;;;;931477;149;27454;-81
2022/10/08 09:34:12;;;;;;;4.20;1.70;;;29.60;52.20;;;;;;932293;149;27406;-80
2022/10/08 09:36:47;;;;;;;1.95;1.55;;;29.10;52.20;;;;;;933231;149;27320;-80
2022/10/08 09:39:14;;;;;;;2.00;1.65;;;28.60;52.30;;;;;;924784;150;27422;-80
2022/10/08 09:41:41;;;;;;;4.45;1.55;;;28.10;52.40;;;;;;928213;149;27397;-79
2022/10/08 09:44:16;;;;;;;3.45;1.30;;;27.60;52.60;;;;;;927148;149;27442;-79
2022/10/08 09:46:43;;;;;;;1.80;1.05;;;27.20;52.50;;;;;;927705;149;27358;-79
2022/10/08 09:49:25;;;;;;;3.12;1.20;;;26.60;52.60;;;;;;931248;149;27340;-79
2022/10/08 09:51:51;;;;;;;4.45;1.72;;;26.10;52.70;;;;;;929148;149;27447;-79
2022/10/08 09:54:18;;;;;;;2.45;1.40;;;25.50;53.00;;;;;;928606;149;27452;-79
2022/10/08 09:56:44;;;;;;;1.82;1.30;;;25.00;53.30;;;;;;930053;149;27369;-80
2022/10/08 09:59:11;;;;;;;3.52;1.60;;;24.60;53.90;;;;;;928916;149;27397;-80
2022/10/08 10:01:38;;;;;;;2.60;1.47;;;24.20;54.30;;;;;;927777;149;27339;-79
2022/10/08 10:04:05;;;;;;;3.92;1.77;;;23.80;54.90;;;;;;927953;149;27405;-80
2022/10/08 10:06:32;;;;;;;1.67;1.52;;;23.50;55.50;;;;;;929334;149;27765;-80
2022/10/08 10:09:25;;;;;;;2.35;1.20;;;23.30;56.10;;;;;;928814;149;27804;-79
2022/10/08 10:12:01;;;;;;;3.35;1.25;;;23.10;56.80;;;;;;928132;149;27472;-79
2022/10/08 10:14:27;;;;;;;2.72;1.45;;;23.00;57.20;;;;;;930009;149;27405;-79
2022/10/08 10:17:03;;;;;;;5.65;1.50;;;22.90;57.30;;;;;;933730;149;27448;-79
2022/10/08 10:19:32;;;;;;;1.40;1.12;;;22.80;57.50;;;;;;932645;149;27384;-79
2022/10/08 10:22:11;;;;;;;2.60;1.40;;;22.80;57.70;;;;;;931011;149;27457;-79
2022/10/08 10:24:37;;;;;;;5.83;1.70;;;22.70;57.90;;;;;;934086;149;27370;-80
2022/10/08 10:27:07;;;;;;;2.15;1.20;;;22.70;58.10;;;;;;933543;149;27372;-79
2022/10/08 10:29:33;;;;;;;4.22;1.50;;;22.70;58.20;;;;;;933137;148;27489;-79
2022/10/08 10:32:00;;;;;;;2.60;1.70;;;22.70;58.30;;;;;;931536;148;27313;-79
2022/10/08 10:34:27;;;;;;;2.72;1.50;;;22.70;58.50;;;;;;932523;148;27317;-79
2022/10/08 10:36:57;;;;;;;1.77;1.10;;;22.80;58.40;;;;;;935898;148;27457;-78
2022/10/08 10:39:23;;;;;;;2.17;1.12;;;22.90;58.40;;;;;;934726;149;27501;-78
2022/10/08 10:41:58;;;;;;;2.47;1.60;;;22.90;58.20;;;;;;933044;148;27410;-78
2022/10/08 10:44:40;;;;;;;1.82;1.15;;;22.80;57.80;;;;;;934086;149;27365;-78
2022/10/08 10:47:06;;;;;;;2.40;1.05;;;22.80;57.70;;;;;;928838;149;27380;-77
2022/10/08 10:49:37;;;;;;;2.22;1.25;;;22.70;57.60;;;;;;932518;149;27439;-80
2022/10/08 10:52:17;;;;;;;2.87;1.32;;;22.60;57.70;;;;;;933473;149;27380;-78
2022/10/08 10:54:49;;;;;;;6.12;2.75;;;22.50;57.80;;;;;;918630;149;27336;-78
2022/10/08 10:57:19;;;;;;;2.12;1.27;;;22.40;57.90;;;;;;932844;148;27367;-79
2022/10/08 10:59:48;;;;;;;2.33;1.50;;;22.30;58.20;;;;;;930982;148;27342;-79
2022/10/08 11:02:33;;;;;;;1.65;1.20;;;22.30;58.30;;;;;;933758;149;27490;-79
2022/10/08 11:05:12;;;;;;;3.72;1.37;;;22.30;58.60;;;;;;933128;149;27473;-79
2022/10/08 11:07:50;;;;;;;1.92;1.40;;;22.20;58.60;;;;;;933840;149;27670;-79
2022/10/08 11:10:20;;;;;;;3.30;1.40;;;22.30;58.70;;;;;;932958;149;27391;-79
2022/10/08 11:12:49;;;;;;;1.40;1.25;;;22.30;58.70;;;;;;931209;149;27380;-79
2022/10/08 11:15:22;;;;;;;2.15;1.02;;;22.40;58.60;;;;;;927436;149;27490;-79
2022/10/08 11:18:10;;;;;;;6.15;2.17;;;22.40;58.50;;;;;;930341;149;28051;-79
2022/10/08 11:20:45;;;;;;;2.65;1.60;;;22.40;58.50;;;;;;930134;149;27803;-79
2022/10/08 11:23:30;;;;;;;1.98;1.32;;;22.40;58.50;;;;;;929090;149;27386;-79
2022/10/08 11:26:24;;;;;;;6.45;1.90;;;22.40;58.50;;;;;;932222;149;27303;-79
2022/10/08 11:29:06;;;;;;;1.57;1.42;;;22.30;58.50;;;;;;906311;152;27530;-79
2022/10/08 11:31:49;;;;;;;2.08;1.50;;;22.40;58.50;;;;;;931461;149;27391;-78
2022/10/08 11:34:19;;;;;;;4.80;1.50;;;22.30;58.50;;;;;;930725;149;27406;-79
2022/10/08 11:36:46;;;;;;;3.45;1.60;;;22.40;58.60;;;;;;933986;149;27347;-78
2022/10/08 11:39:18;;;;;;;1.95;1.70;;;22.30;58.60;;;;;;930853;149;27345;-79
2022/10/08 11:41:45;;;;;;;1.47;1.32;;;22.30;58.60;;;;;;932738;149;27457;-79
2022/10/08 11:44:12;;;;;;;2.25;1.37;;;22.30;58.80;;;;;;930328;150;27421;-79
2022/10/08 11:46:38;;;;;;;2.72;1.37;;;22.30;58.70;;;;;;931724;149;27529;-78
2022/10/08 11:49:14;;;;;;;1.92;1.20;;;22.40;58.70;;;;;;931328;149;27447;-79
2022/10/08 11:51:46;;;;;;;1.90;1.25;;;22.40;58.70;;;;;;931806;149;27325;-79
2022/10/08 11:54:33;;;;;;;2.80;1.15;;;22.30;58.50;;;;;;932455;149;27433;-79
2022/10/08 11:57:18;;;;;;;3.25;1.80;;;22.30;58.40;;;;;;932198;149;27442;-79
2022/10/08 11:59:45;;;;;;;1.70;1.22;;;22.20;58.20;;;;;;931926;149;27383;-78
2022/10/08 12:02:32;;;;;;;2.67;1.35;;;22.10;58.30;;;;;;932071;152;27369;-78
2022/10/08 12:04:59;;;;;;;1.30;1.10;;;22.00;58.60;;;;;;931108;152;27309;-79
2022/10/08 12:07:28;;;;;;;2.22;1.10;;;21.90;58.90;;;;;;930454;149;27476;-79
2022/10/08 12:10:07;;;;;;;1.40;1.02;;;21.80;59.30;;;;;;932576;152;27414;-79
2022/10/08 12:12:48;;;;;;;1.65;1.37;;;21.90;59.40;;;;;;931833;149;27499;-79
2022/10/08 12:15:24;;;;;;;1.25;1.20;;;21.80;59.40;;;;;;933402;149;27675;-79
2022/10/08 12:17:53;;;;;;;1.92;1.37;;;21.80;59.30;;;;;;931313;150;27844;-79
2022/10/08 12:20:25;;;;;;;1.32;1.22;;;21.90;59.30;;;;;;930808;149;28856;-79
2022/10/08 12:23:09;;;;;;;2.77;1.20;;;21.90;59.30;;;;;;931000;149;27451;-79
2022/10/08 12:25:39;;;;;;;1.67;1.30;;;21.90;59.00;;;;;;931511;150;27307;-78
2022/10/08 12:28:20;;;;;;;3.08;1.60;;;21.90;59.00;;;;;;931982;149;27393;-78
2022/10/08 12:30:47;;;;;;;2.50;1.40;;;21.90;59.50;;;;;;931600;150;27494;-78
2022/10/08 12:33:14;;;;;;;3.77;1.50;;;21.90;58.80;;;;;;931928;149;27351;-78
2022/10/08 12:35:46;;;;;;;2.58;1.60;;;21.90;58.70;;;;;;930820;149;27277;-79
2022/10/08 12:38:15;;;;;;;2.35;1.40;;;21.80;58.70;;;;;;930293;152;27307;-79
2022/10/08 12:40:42;;;;;;;3.50;1.50;;;21.80;58.70;;;;;;930658;150;27388;-78
2022/10/08 12:43:23;;;;;;;1.95;1.22;;;21.80;58.80;;;;;;933189;149;27352;-78
2022/10/08 12:45:50;;;;;;;3.27;1.30;;;21.70;58.70;;;;;;931595;149;27344;-78
2022/10/08 12:48:22;;;;;;;3.75;1.65;;;21.70;58.80;;;;;;929024;149;27344;-78
2022/10/08 12:50:55;;;;;;;2.90;1.35;;;21.60;59.10;;;;;;931246;149;27462;-78
2022/10/08 12:53:22;;;;;;;2.37;1.50;;;21.60;59.10;;;;;;931781;149;27394;-78
2022/10/08 12:55:51;;;;;;;2.52;1.67;;;21.60;58.90;;;;;;932389;149;27465;-78
2022/10/08 12:58:18;;;;;;;2.92;1.45;;;21.60;58.80;;;;;;934251;149;27465;-79